Time;durP1;ratioP1;P1;durP2;ratioP2;P2;SDS_P1;SDS_P2;PMS_P1;PMS_P2;Temp;Humidity;BMP_temperature;BMP_pressure;BME280_temperature;BME280_humidity;BME280_pressure;Samples;Min_cycle;Max_cycle;Signal;HPM_P1;HPM_P2
2023/01/12 00:01:40;;;;;;;7.15;0.80;;;;;;;8.47;100.00;99353.59;4932727;29;20031;-92
2023/01/12 00:04:06;;;;;;;10.00;1.10;;;;;;;8.42;100.00;99362.56;4916959;29;20055;-92
2023/01/12 00:06:32;;;;;;;20.50;3.65;;;;;;;8.35;100.00;99347.47;4917888;29;20028;-93
2023/01/12 00:09:01;;;;;;;12.15;1.30;;;;;;;8.43;100.00;99347.00;4918247;29;20028;-92
2023/01/12 00:11:26;;;;;;;14.85;1.23;;;;;;;8.45;100.00;99359.78;4932550;29;20032;-91
2023/01/12 00:13:52;;;;;;;10.65;1.60;;;;;;;8.51;100.00;99362.78;4918112;29;20038;-92
2023/01/12 00:16:39;;;;;;;10.10;1.13;;;;;;;8.55;100.00;99359.06;4916746;29;20111;-91
2023/01/12 00:19:16;;;;;;;7.82;1.15;;;;;;;8.55;100.00;99353.91;4918185;29;20028;-93
2023/01/12 00:24:34;;;;;;;8.68;0.95;;;;;;;8.59;100.00;99353.72;4917896;29;20038;-92
2023/01/12 00:27:03;;;;;;;16.25;1.70;;;;;;;8.49;100.00;99349.19;4932393;29;20079;-93
2023/01/12 00:29:28;;;;;;;6.32;1.15;;;;;;;8.62;100.00;99364.63;4932286;29;20036;-92
2023/01/12 00:31:56;;;;;;;9.73;1.13;;;;;;;9.54;100.00;99352.34;4931669;29;20502;-91
2023/01/12 00:34:22;;;;;;;9.50;1.23;;;;;;;10.90;100.00;99338.97;4912591;29;20381;-93
2023/01/12 00:36:48;;;;;;;9.85;1.15;;;;;;;8.89;100.00;99341.34;4913510;29;20064;-93
2023/01/12 00:39:14;;;;;;;12.10;1.55;;;;;;;8.73;100.00;99330.44;4897407;29;20396;-92
2023/01/12 00:47:10;;;;;;;6.97;0.82;;;;;;;8.77;100.00;99343.00;4898475;29;20055;-92
2023/01/12 00:49:37;;;;;;;9.88;0.95;;;;;;;8.69;100.00;99323.88;4916598;29;20394;-94
2023/01/12 00:52:04;;;;;;;9.65;1.98;;;;;;;8.82;100.00;99340.13;4917056;29;20443;-92
2023/01/12 00:54:31;;;;;;;8.88;1.17;;;;;;;8.82;100.00;99334.16;4931731;29;20140;-93
2023/01/12 00:56:56;;;;;;;14.95;1.05;;;;;;;8.75;100.00;99313.16;4917067;29;20020;-93
2023/01/12 00:59:22;;;;;;;11.23;1.20;;;;;;;8.70;100.00;99326.34;4916930;29;20099;-92
2023/01/12 01:01:48;;;;;;;8.10;1.10;;;;;;;8.76;100.00;99299.38;4917119;29;20427;-94
2023/01/12 01:04:13;;;;;;;10.23;1.20;;;;;;;8.75;100.00;99292.59;4915795;29;20447;-93
2023/01/12 01:06:39;;;;;;;5.72;0.70;;;;;;;9.13;100.00;99291.69;4931444;29;20098;-91
2023/01/12 01:09:06;;;;;;;7.30;0.85;;;;;;;9.10;100.00;99300.47;4931526;29;20028;-93
2023/01/12 01:11:33;;;;;;;5.68;0.70;;;;;;;9.17;100.00;99278.50;4930573;29;20110;-92
2023/01/12 01:13:58;;;;;;;7.55;0.80;;;;;;;9.11;100.00;99283.25;4916914;29;20127;-92
2023/01/12 01:16:24;;;;;;;6.15;0.75;;;;;;;9.12;100.00;99283.16;4916688;29;20444;-91
2023/01/12 01:18:50;;;;;;;5.28;0.40;;;;;;;9.16;100.00;99276.03;4914616;29;20433;-91
2023/01/12 01:21:17;;;;;;;6.68;0.50;;;;;;;9.32;100.00;99294.63;4915663;29;20087;-92
2023/01/12 01:23:43;;;;;;;5.40;0.50;;;;;;;9.29;100.00;99287.13;4915359;29;20119;-93
2023/01/12 01:26:15;;;;;;;7.78;0.60;;;;;;;9.31;100.00;99274.94;4931413;29;20028;-92
2023/01/12 01:28:42;;;;;;;5.60;1.15;;;;;;;9.36;100.00;99290.91;4931100;29;20028;-92
2023/01/12 01:31:12;;;;;;;7.35;0.63;;;;;;;9.36;100.00;99285.78;4916334;29;20418;-92
2023/01/12 01:33:38;;;;;;;5.10;0.65;;;;;;;9.36;100.00;99313.25;4915454;29;20032;-92
2023/01/12 01:36:05;;;;;;;6.53;1.33;;;;;;;9.39;100.00;99293.28;4916518;29;20020;-93
2023/01/12 01:38:30;;;;;;;1.75;0.40;;;;;;;9.41;100.00;99290.56;4916321;29;20032;-92
2023/01/12 01:40:56;;;;;;;5.75;0.40;;;;;;;9.46;100.00;99297.97;4916352;29;20023;-91
2023/01/12 01:43:23;;;;;;;6.07;0.60;;;;;;;9.48;100.00;99296.13;4930834;29;20068;-92
2023/01/12 01:46:14;;;;;;;2.38;0.50;;;;;;;9.51;100.00;99291.59;4930795;29;20035;-92
2023/01/12 01:48:42;;;;;;;11.68;0.55;;;;;;;9.48;100.00;99288.38;4915290;29;20087;-93
2023/01/12 01:51:12;;;;;;;5.80;0.70;;;;;;;9.42;100.00;99282.75;4911848;29;20111;-92
2023/01/12 01:53:42;;;;;;;3.58;0.52;;;;;;;9.47;100.00;99310.75;4896059;29;20471;-91
2023/01/12 01:56:17;;;;;;;4.57;0.65;;;;;;;9.48;100.00;99280.66;4897047;29;20032;-92
2023/01/12 01:58:51;;;;;;;5.05;0.63;;;;;;;9.52;100.00;99287.25;4897068;29;20040;-92
2023/01/12 02:01:16;;;;;;;7.95;0.55;;;;;;;9.51;100.00;99277.84;4911969;29;20454;-94
2023/01/12 02:03:44;;;;;;;3.33;0.38;;;;;;;9.53;100.00;99296.59;4898255;29;20056;-92
2023/01/12 02:06:09;;;;;;;2.40;0.50;;;;;;;9.44;100.00;99300.69;4912038;29;20024;-92
2023/01/12 02:08:53;;;;;;;2.83;0.40;;;;;;;9.56;100.00;99293.81;4915744;29;20048;-93
2023/01/12 02:17:04;;;;;;;2.08;0.10;;;;;;;9.37;100.00;99315.72;4916087;29;20494;-92
2023/01/12 02:19:42;;;;;;;;;;;;;;;9.34;100.00;99300.50;4916448;29;20032;-92
2023/01/12 02:22:49;;;;;;;2.63;0.45;;;;;;;9.33;100.00;99296.25;4929305;29;19934;-91
2023/01/12 02:25:27;;;;;;;4.07;0.30;;;;;;;9.41;100.00;99322.31;4930253;29;20060;-94
2023/01/12 02:28:25;;;;;;;1.65;0.32;;;;;;;9.38;100.00;99285.63;4916010;29;20115;-92
2023/01/12 02:31:18;;;;;;;2.35;0.38;;;;;;;9.45;100.00;99322.09;4913845;29;20044;-91
2023/01/12 02:34:08;;;;;;;3.03;0.22;;;;;;;9.42;100.00;99298.19;4915646;29;20082;-93
2023/01/12 02:36:49;;;;;;;2.17;0.20;;;;;;;9.40;100.00;99312.13;4914498;29;20032;-92
2023/01/12 02:39:23;;;;;;;2.20;0.40;;;;;;;9.34;100.00;99309.97;4914413;29;20024;-93
2023/01/12 02:45:22;;;;;;;5.45;0.88;;;;;;;9.39;100.00;99292.47;4896359;29;20096;-90
2023/01/12 02:48:02;;;;;;;4.45;0.73;;;;;;;9.46;100.00;99303.97;4895157;29;20116;-93
2023/01/12 02:50:40;;;;;;;6.75;0.80;;;;;;;9.43;100.00;99314.47;4911199;29;20035;-93
2023/01/12 02:53:15;;;;;;;1.08;0.43;;;;;;;9.38;100.00;76811.00;4910240;29;20118;-92
2023/01/12 02:55:42;;;;;;;2.20;0.35;;;;;;;-143.29;100.00;62188.47;4929373;29;20554;-91
2023/01/12 02:58:12;;;;;;;6.47;0.45;;;;;;;-143.29;100.00;62188.47;4915572;29;20468;-95
2023/01/12 03:00:40;;;;;;;1.55;0.45;;;;;;;-143.29;100.00;-12896.81;4930355;29;20032;-93
2023/01/12 03:03:06;;;;;;;2.28;0.30;;;;;;;9.33;100.00;76809.03;4915624;29;20471;-92
2023/01/12 03:05:31;;;;;;;4.20;0.32;;;;;;;-143.29;100.00;62188.47;4915337;29;20031;-93
2023/01/12 03:08:04;;;;;;;2.15;0.35;;;;;;;-143.29;100.00;62188.47;4915364;29;20032;-93
2023/01/12 03:10:42;;;;;;;3.30;0.38;;;;;;;-143.29;100.00;62188.47;4929044;29;20039;-92
2023/01/12 03:13:12;;;;;;;3.03;0.20;;;;;;;-143.29;100.00;62188.47;4915018;29;20036;-93
2023/01/12 03:15:51;;;;;;;1.45;0.30;;;;;;;-143.29;100.00;62188.47;4915465;29;20048;-93
2023/01/12 03:18:31;;;;;;;1.10;0.20;;;;;;;-143.29;100.00;62188.47;4929950;29;20038;-93
2023/01/12 03:21:08;;;;;;;5.32;0.68;;;;;;;-143.29;100.00;62188.47;4914034;29;20040;-92
2023/01/12 03:23:43;;;;;;;1.15;0.28;;;;;;;-143.29;100.00;62188.47;4929934;29;20032;-92
2023/01/12 03:26:10;;;;;;;2.35;0.28;;;;;;;-143.29;100.00;62188.47;4927589;29;20499;-92
2023/01/12 03:28:42;;;;;;;1.17;0.20;;;;;;;-143.29;100.00;62188.47;4929765;29;20043;-91
2023/01/12 03:31:10;;;;;;;1.58;0.22;;;;;;;-143.29;100.00;62188.47;4915522;29;20063;-92
2023/01/12 03:33:38;;;;;;;2.42;0.25;;;;;;;-143.29;100.00;62188.47;4914680;29;20032;-92
2023/01/12 03:36:18;;;;;;;6.22;0.63;;;;;;;-143.29;100.00;62188.47;4917291;29;20024;-92
2023/01/12 03:39:04;;;;;;;2.38;0.45;;;;;;;-143.29;100.00;62188.47;4918497;29;20031;-92
2023/01/12 03:41:52;;;;;;;4.70;0.40;;;;;;;-143.29;100.00;62188.47;4917139;29;20036;-90
2023/01/12 03:44:49;;;;;;;4.55;0.40;;;;;;;-143.29;100.00;62188.47;4908191;29;20037;-93
2023/01/12 03:47:22;;;;;;;5.38;0.50;;;;;;;-143.29;100.00;62188.47;4915011;29;20040;-91
2023/01/12 03:50:02;;;;;;;7.07;0.32;;;;;;;-143.29;100.00;62188.47;4918315;29;20036;-92
2023/01/12 03:52:30;;;;;;;3.53;0.30;;;;;;;-143.29;100.00;62188.47;4918099;29;20577;-91
2023/01/12 03:54:58;;;;;;;4.60;0.40;;;;;;;-143.29;100.00;62188.47;4916965;29;20040;-92
2023/01/12 03:57:25;;;;;;;5.28;0.52;;;;;;;-143.29;100.00;62188.47;4918012;29;20024;-92
2023/01/12 03:59:52;;;;;;;4.90;0.45;;;;;;;-143.29;100.00;62188.47;4916685;29;20036;-92
2023/01/12 04:02:18;;;;;;;4.70;0.40;;;;;;;-143.29;100.00;62188.47;4918203;29;20024;-92
2023/01/12 04:04:44;;;;;;;2.50;0.40;;;;;;;-143.29;100.00;62188.47;4917751;29;20039;-92
2023/01/12 04:07:09;;;;;;;4.35;0.40;;;;;;;-143.29;100.00;62188.47;4932362;29;20038;-91
2023/01/12 04:09:36;;;;;;;0.73;0.28;;;;;;;-143.29;100.00;62188.47;4932560;29;20024;-91
2023/01/12 04:12:10;;;;;;;8.13;0.60;;;;;;;-143.29;100.00;62188.47;4932645;29;20083;-93
2023/01/12 04:14:45;;;;;;;9.60;0.40;;;;;;;-143.29;100.00;62188.47;4916925;29;20032;-93
2023/01/12 04:17:15;;;;;;;2.42;0.40;;;;;;;-143.29;100.00;62188.47;4932301;29;20028;-92
2023/01/12 04:19:41;;;;;;;4.68;0.40;;;;;;;-143.29;100.00;62188.47;4917816;29;20028;-92
2023/01/12 04:24:52;;;;;;;2.70;0.30;;;;;;;-143.29;100.00;62188.47;4917849;29;20554;-91
2023/01/12 04:27:18;;;;;;;2.97;0.43;;;;;;;-143.29;100.00;62188.47;4917484;29;20058;-92
2023/01/12 04:29:44;;;;;;;3.60;0.40;;;;;;;-143.29;100.00;62188.47;4915393;29;20024;-91
2023/01/12 04:32:10;;;;;;;0.40;0.20;;;;;;;-143.29;100.00;62188.47;4917360;29;20031;-90
2023/01/12 04:34:35;;;;;;;1.20;0.65;;;;;;;-143.29;100.00;62188.47;4932652;29;20506;-91
2023/01/12 04:37:02;;;;;;;1.83;0.30;;;;;;;-143.29;100.00;62188.47;4920084;29;20063;-92
2023/01/12 04:39:28;;;;;;;2.05;0.30;;;;;;;-143.29;100.00;62188.47;4919350;29;20114;-89
2023/01/12 04:41:54;;;;;;;4.93;0.45;;;;;;;-143.29;100.00;62188.47;4919983;29;20028;-92
2023/01/12 04:44:20;;;;;;;2.30;0.30;;;;;;;-143.29;100.00;62188.47;4932967;29;20059;-92
2023/01/12 04:46:48;;;;;;;3.08;0.47;;;;;;;-143.29;100.00;62188.47;4918206;29;20028;-92
2023/01/12 04:49:13;;;;;;;2.90;1.60;;;;;;;-143.29;100.00;62188.47;4932927;29;20053;-92
2023/01/12 04:51:39;;;;;;;3.25;0.50;;;;;;;-143.29;100.00;62188.47;4932684;29;20040;-92
2023/01/12 04:54:04;;;;;;;3.72;0.30;;;;;;;-143.29;100.00;62188.47;4933232;29;20048;-91
2023/01/12 04:56:30;;;;;;;6.53;0.45;;;;;;;-143.29;100.00;62188.47;4933111;29;20037;-93
2023/01/12 04:58:59;;;;;;;5.78;0.55;;;;;;;-143.29;100.00;62188.47;4931738;29;20733;-92
2023/01/12 05:01:25;;;;;;;3.85;0.25;;;;;;;-143.29;100.00;62188.47;4914337;29;20032;-93
2023/01/12 05:03:54;;;;;;;0.25;0.15;;;;;;;-143.29;100.00;62188.47;4931870;29;20028;-92
2023/01/12 05:06:19;;;;;;;3.83;0.38;;;;;;;-143.29;100.00;62188.47;4917090;29;20024;-93
2023/01/12 05:11:29;;;;;;;1.23;0.17;;;;;;;-143.29;100.00;62188.47;4916995;29;20087;-92
2023/01/12 05:13:56;;;;;;;5.00;0.30;;;;;;;-143.29;100.00;62188.47;4916921;29;20024;-92
2023/01/12 05:16:22;;;;;;;2.08;0.20;;;;;;;-143.29;100.00;62188.47;4930973;29;20313;-93
2023/01/12 05:18:47;;;;;;;2.10;0.20;;;;;;;-143.29;100.00;62188.47;4915590;29;20032;-92
2023/01/12 05:21:15;;;;;;;3.33;0.30;;;;;;;-143.29;100.00;62188.47;4931262;29;20028;-94
2023/01/12 05:23:41;;;;;;;1.83;0.10;;;;;;;-143.29;100.00;62188.47;4916704;29;20087;-92
2023/01/12 05:26:06;;;;;;;1.83;0.10;;;;;;;-143.29;100.00;62188.47;4916859;29;20095;-92
2023/01/12 05:28:32;;;;;;;2.15;0.30;;;;;;;-143.29;100.00;62188.47;4915465;29;20451;-92
2023/01/12 05:31:12;;;;;;;0.40;0.10;;;;;;;-143.29;100.00;62188.47;4916563;29;20490;-93
2023/01/12 05:33:39;;;;;;;1.08;0.10;;;;;;;-143.29;100.00;62188.47;4914967;29;20028;-92
2023/01/12 05:36:08;;;;;;;1.58;0.10;;;;;;;-143.29;100.00;62188.47;4916564;29;20050;-89
2023/01/12 05:38:34;;;;;;;1.95;0.30;;;;;;;-143.29;100.00;62188.47;4915406;29;20379;-92
2023/01/12 05:41:01;;;;;;;0.25;0.10;;;;;;;-143.29;100.00;62188.47;4915132;29;20174;-92
2023/01/12 05:46:12;;;;;;;4.13;0.17;;;;;;;-143.29;100.00;62188.47;4916763;29;20035;-92
2023/01/12 05:48:38;;;;;;;1.77;0.20;;;;;;;-143.29;100.00;62188.47;4913993;29;20067;-93
2023/01/12 05:51:05;;;;;;;1.52;0.20;;;;;;;-143.29;100.00;62188.47;4930718;29;20028;-93
2023/01/12 05:53:31;;;;;;;7.50;0.80;;;;;;;-143.29;100.00;62188.47;4916587;29;20051;-92
2023/01/12 05:55:57;;;;;;;0.75;0.30;;;;;;;-143.29;100.00;62188.47;4916653;29;20459;-93
2023/01/12 05:58:23;;;;;;;0.85;0.20;;;;;;;-143.29;100.00;62188.47;4930488;29;20047;-93
2023/01/12 06:00:49;;;;;;;2.47;0.40;;;;;;;-143.29;100.00;62188.47;4916295;29;20064;-92
2023/01/12 06:03:15;;;;;;;3.53;0.20;;;;;;;-143.29;100.00;62188.47;4928473;29;20542;-91
2023/01/12 06:05:41;;;;;;;5.68;0.47;;;;;;;-143.29;100.00;62188.47;4929988;29;20087;-92
2023/01/12 06:08:06;;;;;;;3.80;0.45;;;;;;;-143.29;100.00;62188.47;4916310;29;20051;-92
2023/01/12 06:10:33;;;;;;;3.03;0.40;;;;;;;-143.29;100.00;62188.47;4915884;29;20032;-93
2023/01/12 06:15:43;;;;;;;2.25;0.32;;;;;;;-143.29;100.00;62188.47;4916257;29;20123;-93
2023/01/12 06:18:09;;;;;;;3.60;0.20;;;;;;;-143.29;100.00;62188.47;4914511;29;20061;-92
2023/01/12 06:20:34;;;;;;;0.75;0.22;;;;;;;-143.29;100.00;62188.47;4914376;29;20080;-92
2023/01/12 06:23:01;;;;;;;2.28;0.20;;;;;;;-143.29;100.00;62188.47;4915975;29;20505;-92
2023/01/12 06:25:28;;;;;;;0.28;0.00;;;;;;;-143.29;100.00;62188.47;4915783;29;20467;-93
2023/01/12 06:27:55;;;;;;;2.22;0.30;;;;;;;-143.29;100.00;62188.47;4915795;29;20032;-93
2023/01/12 06:30:21;;;;;;;1.05;0.10;;;;;;;-143.29;100.00;62188.47;4915579;29;20503;-92
2023/01/12 06:32:46;;;;;;;4.63;0.28;;;;;;;-143.29;100.00;62188.47;4915934;29;20067;-92
2023/01/12 06:35:12;;;;;;;3.05;0.30;;;;;;;-143.29;100.00;62188.47;4914672;29;20052;-92
2023/01/12 06:37:37;;;;;;;4.95;0.32;;;;;;;-143.29;100.00;62188.47;4915542;29;20392;-92
2023/01/12 06:40:03;;;;;;;2.78;0.40;;;;;;;-143.29;100.00;62188.47;4930711;29;20032;-91
2023/01/12 06:42:28;;;;;;;1.95;0.17;;;;;;;-143.29;100.00;62188.47;4916063;29;20036;-92
2023/01/12 06:44:59;;;;;;;11.35;0.40;;;;;;;-143.29;100.00;62188.47;4915629;29;20100;-92
2023/01/12 06:47:25;;;;;;;2.70;0.20;;;;;;;-143.29;100.00;62188.47;4931474;29;20028;-91
2023/01/12 06:49:51;;;;;;;2.20;0.20;;;;;;;-143.29;100.00;62188.47;4917848;29;20044;-92
2023/01/12 06:52:18;;;;;;;0.82;0.10;;;;;;;-143.29;100.00;62188.47;4917572;29;20044;-91
2023/01/12 06:54:44;;;;;;;5.60;0.20;;;;;;;-143.29;100.00;62188.47;4933080;29;20467;-91
2023/01/12 06:57:09;;;;;;;1.05;0.30;;;;;;;-143.29;100.00;62188.47;4918346;29;20052;-93
2023/01/12 06:59:35;;;;;;;0.75;0.20;;;;;;;-143.29;100.00;62188.47;4931512;29;20024;-92
2023/01/12 07:02:01;;;;;;;0.52;0.10;;;;;;;-143.29;100.00;62188.47;4932959;29;20131;-92
2023/01/12 07:04:27;;;;;;;1.00;0.52;;;;;;;-143.29;100.00;62188.47;4931569;29;20091;-91
2023/01/12 07:06:54;;;;;;;0.85;0.10;;;;;;;-143.29;100.00;62188.47;4916575;29;20099;-92
2023/01/12 07:09:20;;;;;;;1.77;0.32;;;;;;;-143.29;100.00;62188.47;4934121;29;20207;-90
2023/01/12 07:11:45;;;;;;;1.10;0.28;;;;;;;-143.29;100.00;62188.47;4935310;29;20028;-91
2023/01/12 07:14:11;;;;;;;3.88;0.30;;;;;;;-143.29;100.00;62188.47;4922444;29;20060;-91
2023/01/12 07:16:36;;;;;;;3.05;0.30;;;;;;;-143.29;100.00;62188.47;4925105;29;20036;-92
2023/01/12 07:19:02;;;;;;;1.95;0.30;;;;;;;-143.29;100.00;62188.47;4920326;29;20090;-91
2023/01/12 07:21:28;;;;;;;8.40;0.57;;;;;;;-143.29;100.00;62188.47;4921640;29;20067;-92
2023/01/12 07:23:53;;;;;;;3.90;0.50;;;;;;;-143.29;100.00;62188.47;4921950;29;20024;-92
2023/01/12 07:26:19;;;;;;;2.15;0.28;;;;;;;-143.29;100.00;62188.47;4920631;29;20067;-92
2023/01/12 07:28:44;;;;;;;2.15;0.40;;;;;;;-143.29;100.00;62188.47;4921548;29;20032;-92
2023/01/12 07:31:10;;;;;;;4.93;0.60;;;;;;;-143.29;100.00;62188.47;4920866;29;20487;-91
2023/01/12 07:33:37;;;;;;;3.03;0.40;;;;;;;-143.29;100.00;62188.47;4927200;29;20024;-91
2023/01/12 07:36:03;;;;;;;2.63;0.30;;;;;;;-143.29;100.00;62188.47;4941052;29;20054;-92
2023/01/12 07:38:29;;;;;;;5.75;0.28;;;;;;;-143.29;100.00;62188.47;4939716;29;20035;-92
2023/01/12 07:41:00;;;;;;;2.10;0.35;;;;;;;-143.29;100.00;62188.47;4922249;29;20028;-91
2023/01/12 07:43:25;;;;;;;4.78;0.30;;;;;;;-143.29;100.00;62188.47;4924529;29;20032;-90
2023/01/12 07:45:54;;;;;;;6.15;0.45;;;;;;;-143.29;100.00;62188.47;4926022;29;20024;-92
2023/01/12 07:48:20;;;;;;;4.65;0.35;;;;;;;-143.29;100.00;62188.47;4925788;29;20048;-91
2023/01/12 07:50:45;;;;;;;2.95;0.25;;;;;;;-143.29;100.00;62188.47;4926822;29;20264;-91
2023/01/12 07:53:11;;;;;;;0.88;0.30;;;;;;;-143.29;100.00;62188.47;4923472;29;20279;-92
2023/01/12 07:55:38;;;;;;;2.22;0.35;;;;;;;-143.29;100.00;62188.47;4938663;29;20060;-91
2023/01/12 07:58:05;;;;;;;4.63;0.30;;;;;;;-143.29;100.00;62188.47;4923852;29;20559;-92
2023/01/12 08:00:30;;;;;;;1.77;0.25;;;;;;;-143.29;100.00;62188.47;4934308;29;20043;-92
2023/01/12 08:03:03;;;;;;;3.17;0.30;;;;;;;-143.29;100.00;62188.47;4919171;29;20480;-93
2023/01/12 08:05:29;;;;;;;0.75;0.20;;;;;;;-143.29;100.00;62188.47;4932281;29;20042;-93
2023/01/12 08:07:54;;;;;;;3.05;0.32;;;;;;;-143.29;100.00;62188.47;4919268;29;20029;-92
2023/01/12 08:10:20;;;;;;;1.85;0.28;;;;;;;-143.29;100.00;62188.47;4917982;29;20040;-92
2023/01/12 08:12:48;;;;;;;3.70;0.38;;;;;;;-143.29;100.00;62188.47;4933290;29;20036;-92
2023/01/12 08:15:14;;;;;;;2.10;0.30;;;;;;;-143.29;100.00;62188.47;4933181;29;20025;-92
2023/01/12 08:17:46;;;;;;;1.95;0.40;;;;;;;-143.29;100.00;62188.47;4918233;29;20563;-92
2023/01/12 08:20:17;;;;;;;7.68;0.50;;;;;;;-143.29;100.00;62188.47;4916922;29;20028;-92
2023/01/12 08:22:47;;;;;;;5.00;0.50;;;;;;;-143.29;100.00;62188.47;4897990;29;20020;-92
2023/01/12 08:25:17;;;;;;;1.75;0.30;;;;;;;-143.29;100.00;62188.47;4916618;29;20436;-92
2023/01/12 08:27:47;;;;;;;4.55;0.32;;;;;;;-143.29;100.00;62188.47;4918335;29;20112;-92
2023/01/12 08:30:16;;;;;;;1.55;0.45;;;;;;;-143.29;100.00;62188.47;4933193;29;20028;-92
2023/01/12 08:32:42;;;;;;;0.77;0.20;;;;;;;-143.29;100.00;62188.47;4918195;29;20368;-90
2023/01/12 08:35:09;;;;;;;2.28;0.20;;;;;;;-143.29;100.00;62188.47;4918567;29;20087;-91
2023/01/12 08:37:35;;;;;;;1.35;0.20;;;;;;;-143.29;100.00;62188.47;4918839;29;20375;-91
2023/01/12 08:40:03;;;;;;;4.40;0.30;;;;;;;-143.29;100.00;62188.47;4917075;29;20032;-91
2023/01/12 08:42:29;;;;;;;4.20;0.45;;;;;;;-143.29;100.00;62188.47;4918015;29;20028;-92
2023/01/12 08:44:54;;;;;;;3.70;0.50;;;;;;;-143.29;100.00;62188.47;4918386;29;20055;-91
2023/01/12 08:47:26;;;;;;;3.30;0.20;;;;;;;-143.29;100.00;62188.47;4917953;29;20066;-90
2023/01/12 08:49:52;;;;;;;2.03;0.65;;;;;;;-143.29;100.00;62188.47;4918334;29;20016;-91
2023/01/12 08:52:18;;;;;;;0.25;0.10;;;;;;;-143.29;100.00;62188.47;4930862;29;20499;-91
2023/01/12 08:54:44;;;;;;;2.25;0.28;;;;;;;-143.29;100.00;62188.47;4917073;29;20035;-92
2023/01/12 08:57:10;;;;;;;3.50;0.65;;;;;;;-143.29;100.00;62188.47;4932766;29;20020;-91
2023/01/12 08:59:35;;;;;;;2.33;0.25;;;;;;;-143.29;100.00;62188.47;4916495;29;20136;-92
2023/01/12 09:02:01;;;;;;;2.35;0.30;;;;;;;-143.29;100.00;62188.47;4932485;29;20135;-92
2023/01/12 09:04:27;;;;;;;1.63;0.20;;;;;;;-143.29;100.00;62188.47;4917761;29;20032;-92
2023/01/12 09:06:53;;;;;;;1.98;0.17;;;;;;;-143.29;100.00;62188.47;4916694;29;20035;-92
2023/01/12 09:09:19;;;;;;;2.40;0.10;;;;;;;-143.29;100.00;62188.47;4917312;29;20036;-91
2023/01/12 09:11:47;;;;;;;5.07;0.30;;;;;;;-143.29;100.00;62188.47;4932265;29;20028;-92
2023/01/12 09:14:14;;;;;;;2.38;0.20;;;;;;;-143.29;100.00;62188.47;4932088;29;20039;-91
2023/01/12 09:16:41;;;;;;;2.28;0.40;;;;;;;-143.29;100.00;62188.47;4916011;29;20395;-91
2023/01/12 09:19:07;;;;;;;1.55;0.15;;;;;;;-143.29;100.00;62188.47;4915805;29;20036;-91
2023/01/12 09:21:37;;;;;;;4.78;0.38;;;;;;;-143.29;100.00;62188.47;4931824;29;20028;-90
2023/01/12 09:24:03;;;;;;;2.00;0.35;;;;;;;-143.29;100.00;62188.47;4917423;29;20028;-91
2023/01/12 09:26:30;;;;;;;1.95;0.20;;;;;;;-143.29;100.00;62188.47;4931599;29;20035;-92
2023/01/12 09:29:00;;;;;;;6.10;0.40;;;;;;;-143.29;100.00;62188.47;4926769;29;20036;-93
2023/01/12 09:31:28;;;;;;;6.53;0.82;;;;;;;-143.29;100.00;62188.47;4913664;29;20028;-92
2023/01/12 09:33:54;;;;;;;1.02;0.30;;;;;;;-143.29;100.00;62188.47;4913572;29;20502;-92
2023/01/12 09:36:33;;;;;;;35.97;2.65;;;;;;;-143.29;100.00;62188.47;4929640;29;20032;-92
2023/01/12 09:39:00;;;;;;;2.92;1.02;;;;;;;-143.29;100.00;62188.47;4914502;29;20034;-91
2023/01/12 09:47:27;;;;;;;0.65;0.28;;;;;;;-143.29;100.00;62188.47;4915472;29;20099;-93
2023/01/12 09:50:10;;;;;;;1.63;0.30;;;;;;;-143.29;100.00;62188.47;4914311;29;20024;-92
2023/01/12 09:52:42;;;;;;;2.17;0.20;;;;;;;-143.29;100.00;62188.47;4913686;29;20032;-91
2023/01/12 09:55:18;;;;;;;3.83;0.20;;;;;;;-143.29;100.00;62188.47;4911211;29;20032;-92
2023/01/12 09:58:21;;;;;;;1.77;0.30;;;;;;;-143.29;100.00;62188.47;4918897;29;20039;-92
2023/01/12 10:00:53;;;;;;;3.97;0.30;;;;;;;-143.29;100.00;62188.47;4919057;29;20063;-92
2023/01/12 10:03:37;;;;;;;4.50;0.38;;;;;;;-143.29;100.00;62188.47;4933862;29;20488;-92
2023/01/12 10:06:04;;;;;;;1.92;0.30;;;;;;;-143.29;100.00;62188.47;4930057;29;20091;-93
2023/01/12 10:08:50;;;;;;;0.95;0.32;;;;;;;-143.29;100.00;62188.47;4927260;29;20103;-91
2023/01/12 10:11:31;;;;;;;1.60;0.20;;;;;;;-143.29;100.00;62188.47;4927511;29;20423;-91
2023/01/12 10:14:14;;;;;;;3.58;0.30;;;;;;;-143.29;100.00;62188.47;4905354;29;20091;-93
2023/01/12 10:16:58;;;;;;;1.35;0.20;;;;;;;-143.29;100.00;62188.47;4917806;29;20037;-93
2023/01/12 10:19:53;;;;;;;0.08;0.08;;;;;;;-143.29;100.00;62188.47;4898030;29;20032;-92
2023/01/12 10:22:36;;;;;;;5.43;0.30;;;;;;;-143.29;100.00;62188.47;4896790;29;20051;-92
2023/01/12 10:25:20;;;;;;;1.95;0.20;;;;;;;-143.29;100.00;62188.47;4911481;29;20052;-92
2023/01/12 10:27:48;;;;;;;0.80;0.10;;;;;;;-143.29;100.00;62188.47;4895243;29;20084;-92
2023/01/12 10:30:18;;;;;;;2.88;0.40;;;;;;;-143.29;100.00;62188.47;4910651;29;20332;-92
2023/01/12 10:32:44;;;;;;;3.33;0.30;;;;;;;-143.29;100.00;62188.47;4910133;29;20195;-93
2023/01/12 10:35:18;;;;;;;4.45;0.30;;;;;;;-143.29;100.00;62188.47;4895340;29;20036;-92
2023/01/12 10:37:55;;;;;;;0.70;0.15;;;;;;;-143.29;100.00;62188.47;4913282;29;20039;-91
2023/01/12 10:40:25;;;;;;;3.60;0.32;;;;;;;-143.29;100.00;62188.47;4896958;29;20059;-91
2023/01/12 10:43:18;;;;;;;5.38;0.60;;;;;;;-143.29;100.00;62188.47;4895963;29;20040;-92
2023/01/12 10:46:00;;;;;;;1.23;0.20;;;;;;;-143.29;100.00;62188.47;4900398;29;20151;-93
2023/01/12 10:48:26;;;;;;;2.58;0.45;;;;;;;-143.29;100.00;62188.47;4915311;29;20025;-92
2023/01/12 10:51:01;;;;;;;6.13;0.40;;;;;;;-143.29;100.00;62188.47;4899330;29;20076;-93
2023/01/12 10:53:35;;;;;;;1.65;0.30;;;;;;;-143.29;100.00;62188.47;4899075;29;20025;-93
2023/01/12 10:56:21;;;;;;;1.17;0.30;;;;;;;-143.29;100.00;62188.47;4899083;29;20032;-93
2023/01/12 10:58:53;;;;;;;1.95;0.17;;;;;;;-143.29;100.00;62188.47;4915053;29;20025;-91
2023/01/12 11:01:19;;;;;;;5.47;0.60;;;;;;;-143.29;100.00;62188.47;4901000;29;20059;-92
2023/01/12 11:03:45;;;;;;;7.38;0.68;;;;;;;-143.29;100.00;62188.47;4900493;29;20029;-93
2023/01/12 11:06:22;;;;;;;3.10;0.43;;;;;;;-143.29;100.00;62188.47;4900460;29;20035;-93
2023/01/12 11:08:47;;;;;;;2.63;0.45;;;;;;;-143.29;100.00;62188.47;4900398;29;20473;-92
2023/01/12 11:11:25;;;;;;;4.65;0.40;;;;;;;-143.29;100.00;62188.47;4899066;29;20036;-93
2023/01/12 11:13:53;;;;;;;1.35;0.20;;;;;;;-143.29;100.00;62188.47;4900606;29;20029;-93
2023/01/12 11:16:23;;;;;;;3.35;0.20;;;;;;;-143.29;100.00;62188.47;4899233;29;20028;-94
2023/01/12 11:18:58;;;;;;;4.30;0.30;;;;;;;-143.29;100.00;62188.47;4900155;29;20032;-92
2023/01/12 11:21:28;;;;;;;0.30;0.13;;;;;;;-143.29;100.00;62188.47;4898823;29;20044;-93
2023/01/12 11:24:08;;;;;;;1.67;0.20;;;;;;;-143.29;100.00;62188.47;4914593;29;20031;-93
2023/01/12 11:26:43;;;;;;;0.32;0.20;;;;;;;-143.29;100.00;62188.47;4901213;29;20032;-92
2023/01/12 11:29:33;;;;;;;2.42;0.10;;;;;;;-143.29;100.00;62188.47;4914093;29;20120;-91
2023/01/12 11:32:18;;;;;;;1.92;0.20;;;;;;;-143.29;100.00;62188.47;4899604;29;20025;-92
2023/01/12 11:34:54;;;;;;;1.55;0.20;;;;;;;-143.29;100.00;62188.47;4898203;29;20060;-92
2023/01/12 11:37:20;;;;;;;2.42;0.32;;;;;;;-143.29;100.00;62188.47;4897850;29;20020;-91
2023/01/12 11:39:51;;;;;;;0.68;0.30;;;;;;;-143.29;100.00;62188.47;4899228;29;20029;-93
2023/01/12 11:45:45;;;;;;;1.70;0.30;;;;;;;-143.29;100.00;62188.47;4899857;29;20087;-92
2023/01/12 11:48:24;;;;;;;2.13;0.35;;;;;;;-143.29;100.00;62188.47;4898159;29;20511;-92
2023/01/12 11:50:52;;;;;;;5.10;0.38;;;;;;;-143.29;100.00;62188.47;4899758;29;20024;-92
2023/01/12 11:53:22;;;;;;;5.65;0.55;;;;;;;-143.29;100.00;62188.47;4913942;29;20048;-92
2023/01/12 11:56:22;;;;;;;1.20;0.22;;;;;;;-143.29;100.00;62188.47;4897425;29;20537;-92
2023/01/12 11:59:12;;;;;;;2.47;0.47;;;;;;;-143.29;100.00;62188.47;4898227;29;20041;-92
2023/01/12 12:02:04;;;;;;;7.20;0.50;;;;;;;-143.29;100.00;62188.47;4899460;29;20121;-91
2023/01/12 12:04:43;;;;;;;0.90;0.40;;;;;;;-143.29;100.00;62188.47;4888110;29;20041;-92
2023/01/12 12:07:27;;;;;;;0.25;0.10;;;;;;;-143.29;100.00;62188.47;4897787;29;20119;-91